• Join FlightAware (Why Join?)
  • Login
  • US Flag 
10:55PM EDT


 

Airport Tracker/Info


-or-


 

Live Flight TrackerFlight Track Log ✈ N960DL ✈ 09-Jun-2013 ✈ KMSP - KDTW

Flight Track Log - Related Links

Times and Time Zones

All times are in EDT time to prevent confusion due to time zone crossing. See the N960DL flight status page for this flight to view local times or setup timezone preferences in your user account.

Time Position Orientation Groundspeed Altitude Reporting Facility
EDT Latitude Longitude Course Direction KTS MPH feet Rate Location/Type
11:08PM 44.8667 -93.1667 117° Southeast 165 190 2,400  Level Minneapolis TRACON
11:08PM 44.8700 -93.1342 82° East 183 211 2,900 2,160 Climbing Minneapolis Center
11:09PM 44.8561 -93.0358 101° East 252 290 5,500 2,460 Climbing Minneapolis Center
11:10PM 44.7830 -92.7703 115° Southeast  Level Estimated
11:10PM 44.8403 -92.9319 102° East 269 310 8,000  Level Minneapolis Center
11:11PM 44.7496 -92.6202 113° Southeast  Level Estimated
11:11PM 44.8094 -92.8342 114° Southeast 277 319 10,700  Level Minneapolis Center
11:12PM 44.7161 -92.4702 125° Southeast  Level Estimated
11:12PM 44.7636 -92.7197 119° Southeast 340 391 12,100  Level Minneapolis Center
11:13PM 44.6823 -92.3204 117° Southeast  Level Estimated
11:13PM 44.7108 -92.5844 119° Southeast 393 452 14,600  Level Minneapolis Center
11:14PM 44.6572 -92.4458 118° Southeast 405 466 17,400 2,400 Climbing Minneapolis Center
11:15PM 44.6011 -92.3044 119° Southeast 413 475 19,600 2,040 Climbing Minneapolis Center
11:16PM 44.5408 -92.1544 119° Southeast 436 502 21,600 2,040 Climbing Minneapolis Center
11:17PM 44.4661 -91.9681 119° Southeast 456 525 23,800 1,980 Climbing Minneapolis Center
11:18PM 44.4039 -91.8094 119° Southeast 465 535 25,700 1,980 Climbing Minneapolis Center
11:19PM 44.3400 -91.6511 119° Southeast 468 539 27,900 2,160 Climbing Minneapolis Center
11:20PM 44.2781 -91.4972 119° Southeast 461 531 30,200 1,980 Climbing Minneapolis Center
11:21PM 44.2175 -91.3478 119° Southeast 449 517 32,000 1,320 Climbing Minneapolis Center
11:22PM 44.1619 -91.2131 120° Southeast 441 507 33,000 840 Climbing Minneapolis Center
11:23PM 44.1008 -91.0678 120° Southeast 439 505 33,800 780 Climbing Minneapolis Center
11:24PM 44.0264 -90.8872 120° Southeast 448 516 34,600 480 Climbing Minneapolis Center
11:25PM 43.9625 -90.7369 121° Southeast 453 521 34,800 -480 Climbing Minneapolis Center
11:26PM 43.9117 -90.6164 120° Southeast 457 526 33,800 -1,740 Descending Chicago Center
11:27PM 43.8525 -90.4750 120° Southeast 431 496 31,500 -1,440 Descending Chicago Center
11:28PM 43.7919 -90.3322 120° Southeast 431 496 31,000 -300 Descending Chicago Center
11:29PM 43.7197 -90.1603 120° Southeast 434 499 31,000  Level Chicago Center
11:30PM 43.6572 -90.0147 121° Southeast 440 506 31,000  Level Chicago Center
11:31PM 43.5956 -89.8708 121° Southeast 436 502 31,000  Level Chicago Center
11:32PM 43.5375 -89.7250 119° Southeast 435 501 31,000  Level Chicago Center
11:33PM 43.4958 -89.5700 110° East 429 494 31,000  Level Chicago Center
11:34PM 43.4528 -89.4169 111° Southeast 428 493 31,000  Level Chicago Center
11:35PM 43.4072 -89.2636 112° Southeast 433 498 31,000  Level Chicago Center
11:36PM 43.3622 -89.1097 112° Southeast 434 499 31,000  Level Chicago Center
11:37PM 43.3383 -88.9492 102° East 435 501 31,000  Level Chicago Center
11:38PM 43.3264 -88.7856 96° East 434 499 31,000  Level Chicago Center
11:39PM 43.3131 -88.6219 96° East 436 502 31,000  Level Chicago Center
11:40PM 43.2983 -88.4300 96° East 442 509 31,000  Level Chicago Center
11:41PM 43.2850 -88.2642 96° East 442 509 31,000  Level Chicago Center
11:42PM 43.2731 -88.0981 96° East 441 507 31,000  Level Chicago Center
11:43PM 43.2597 -87.9292 96° East 446 513 31,000  Level Chicago Center
11:44PM 43.2456 -87.7589 96° East 450 518 31,000  Level Chicago Center
11:45PM 43.2319 -87.5856 96° East 456 525 31,000  Level Chicago Center
11:46PM 43.2156 -87.4142 97° East 455 524 31,000  Level Chicago Center
11:47PM 43.2003 -87.2300 96° East 451 519 31,000  Level Chicago Center
11:48PM 43.1828 -87.0597 98° East 452 520 31,000  Level Chicago Center
11:49PM 43.1486 -86.8992 106° East 444 511 31,000  Level Chicago Center
11:50PM 43.1103 -86.7417 108° East 438 504 31,000 -120 Level Chicago Center
11:51PM 43.0700 -86.5836 109° East 442 509 30,800 -780 Descending Chicago Center
11:52PM 43.0303 -86.4231 109° East 447 514 29,500 -1,080 Descending Chicago Center
11:53PM 42.9897 -86.2653 109° East 446 513 28,700 -660 Descending Chicago Center
11:55PM 42.9492 -86.1100 110° East 444 511 28,200 -600 Descending Chicago Center
11:56PM 42.9117 -85.9564 108° East 440 506 27,500 -720 Descending Chicago Center
11:57PM 42.8653 -85.7739 109° East 432 497 26,800 -600 Descending Chicago Center
11:58PM 42.8272 -85.6231 109° East 426 490 26,300 -600 Descending Chicago Center
11:59PM 42.7892 -85.4739 109° East 421 484 25,700 -840 Descending Chicago Center
12:00AM 42.7511 -85.3272 109° East 413 475 24,700 -1,140 Descending Chicago Center
12:01AM 42.7136 -85.1833 109° East 407 468 23,400 -900 Descending Chicago Center
12:02AM 42.6775 -85.0436 109° East 396 456 23,000 -600 Descending Chicago Center
12:03AM 42.6394 -84.9047 110° East 393 452 22,300 -1,320 Descending Chicago Center
12:04AM 42.6042 -84.7683 109° East 388 447 20,400 -2,340 Descending Chicago Center
12:05AM 42.5692 -84.6392 110° East 372 428 17,700 -2,160 Descending Chicago Center
12:06AM 42.5336 -84.5097 110° East 368 423 16,100 -1,740 Descending Chicago Center
12:07AM 42.5000 -84.3900 111° Southeast 348 400 14,300 -1,800 Descending Chicago Center
12:08AM 42.4678 -84.2706 110° East 340 391 12,500 -1,740 Descending Chicago Center
12:09AM 42.4314 -84.1589 114° Southeast 329 379 10,900 -900 Descending Chicago Center
12:10AM 42.3875 -84.0542 120° Southeast 321 369 10,700 -420 Descending Chicago Center
12:11AM 42.3364 -83.9658 128° Southeast 300 345 10,100 -1,140 Descending Chicago Center
12:12AM 42.2856 -83.8922 133° Southeast 276 318 8,500 -1,620 Descending Chicago Center